MDT,Max TemperatureF,Mean TemperatureF,Min TemperatureF,Max Dew PointF,MeanDew PointF,Min DewpointF,Max Humidity, Mean Humidity, Min Humidity, Max Sea Level PressureIn, Mean Sea Level PressureIn, Min Sea Level PressureIn, Max VisibilityMiles, Mean VisibilityMiles, Min VisibilityMiles, Max Wind SpeedMPH, Mean Wind SpeedMPH, Max Gust SpeedMPH,PrecipitationIn, CloudCover, Events, WindDirDegrees
2011-10-1,84,70,57,45,40,36,45,35,24,30.27,30.03,29.93,10,10,10,13,8,20,0.00,0,,84
2011-10-2,84,72,59,57,47,41,87,47,25,30.23,30.03,29.88,10,10,4,23,9,29,0.38,3,Rain-Thunderstorm,82
2011-10-3,78,66,53,56,53,49,86,61,36,30.22,30.00,29.94,10,10,10,13,5,23,T,2,,115
2011-10-4,75,67,60,57,54,46,90,66,41,30.14,29.96,29.81,10,10,9,15,6,18,0.02,5,Rain-Thunderstorm,53
2011-10-5,79,66,54,55,46,33,93,57,21,30.01,29.84,29.72,10,10,10,23,6,33,0.01,1,,259
2011-10-6,81,65,48,45,38,29,80,48,15,29.90,29.69,29.61,10,10,6,35,13,47,0.00,0,,251
2011-10-7,67,57,47,46,41,30,86,63,40,29.94,29.82,29.71,10,10,10,23,9,31,0.02,4,Rain,271
2011-10-8,66,50,34,31,27,20,82,51,20,30.07,29.95,29.87,10,10,10,14,3,17,0.00,0,,278
2011-10-9,71,53,35,31,26,22,64,40,16,30.03,29.95,29.90,10,10,10,18,5,24,0.00,0,,59
2011-10-10,77,59,40,39,31,25,60,40,19,30.09,29.91,29.80,10,10,10,15,5,18,0.00,0,,10
2011-10-11,82,61,40,34,26,17,65,37,9,30.00,29.83,29.74,10,10,10,22,8,29,0.00,0,,275
2011-10-12,83,65,46,33,26,21,46,29,11,30.10,29.91,29.82,10,10,10,17,5,30,0.00,0,,64
2011-10-13,84,64,44,30,26,21,53,32,10,30.15,29.95,29.83,10,10,10,12,4,15,0.00,0,,279
2011-10-14,87,66,44,30,24,19,49,29,8,30.07,29.89,29.82,10,10,10,10,3,20,0.00,0,,286
2011-10-15,89,67,45,32,25,19,45,27,8,30.13,29.96,29.88,10,10,10,12,4,18,0.00,0,,235
2011-10-16,89,66,43,26,23,19,49,29,8,30.12,29.94,29.86,10,10,10,15,5,17,0.00,0,,269
2011-10-17,88,70,52,30,27,22,35,23,10,29.95,29.87,29.79,10,10,10,24,10,33,0.00,0,,289
2011-10-18,75,60,45,34,27,21,50,34,17,30.22,30.06,29.92,10,10,10,12,7,16,0.00,0,,78
2011-10-19,76,58,39,29,26,24,51,34,16,30.25,30.04,29.93,10,10,10,13,6,16,0.00,0,,63
2011-10-20,84,63,41,28,24,20,53,32,10,30.08,29.97,29.90,10,10,10,28,9,35,0.00,0,,281
2011-10-21,83,63,43,29,25,23,38,26,13,30.25,30.03,29.97,10,10,10,24,7,30,0.00,0,,264
2011-10-22,83,64,44,33,27,21,49,32,15,30.15,29.99,29.92,10,10,10,16,5,26,0.00,0,,261
2011-10-23,84,64,45,25,22,20,39,24,10,30.21,30.02,29.94,10,10,10,12,4,,0.00,0,,25
2011-10-24,77,62,48,57,33,21,90,39,13,30.21,30.03,29.94,10,10,8,17,5,25,0.03,3,Rain,309
2011-10-25,81,65,48,54,45,36,96,60,23,30.16,29.95,29.85,10,10,10,21,7,28,0.00,0,,268
2011-10-26,80,62,43,52,42,34,65,48,30,30.02,29.79,29.64,10,10,3,32,9,47,0.12,4,Rain-Thunderstorm,242
2011-10-27,63,53,43,44,37,35,76,56,36,30.06,29.94,29.73,10,10,10,22,8,28,T,1,,74
2011-10-28,66,50,34,37,34,31,89,60,31,30.25,30.15,30.07,10,10,10,12,7,17,0.00,0,,82
2011-10-29,69,54,39,35,33,30,76,52,27,30.16,30.08,29.98,10,10,10,9,5,13,0.00,0,,76
2011-10-30,77,56,34,30,23,17,70,41,11,30.20,30.09,30.03,10,10,10,16,4,21,0.00,0,,66
2011-10-31,77,57,37,31,22,17,46,30,13,30.21,30.04,29.94,10,10,10,8,4,,0.00,0,,320